Time;durP1;ratioP1;P1;durP2;ratioP2;P2;SDS_P1;SDS_P2;PMS_P1;PMS_P2;Temp;Humidity;BMP_temperature;BMP_pressure;BME280_temperature;BME280_humidity;BME280_pressure;Samples;Min_cycle;Max_cycle;Signal;HPM_P1;HPM_P2
2023/03/07 00:00:20;;;;;;;5.78;3.63;;;;;;;3.07;100.00;99666.84;5115665;28;20100;-79
2023/03/07 00:06:08;;;;;;;4.90;3.25;;;;;;;3.03;100.00;99662.97;5115864;28;20058;-82
2023/03/07 00:11:55;;;;;;;4.38;3.25;;;;;;;2.97;100.00;99659.28;5115541;28;20050;-83
2023/03/07 00:17:43;;;;;;;3.40;2.63;;;;;;;2.84;100.00;99659.19;5113389;28;20101;-82
2023/03/07 00:24:08;;;;;;;3.90;2.70;;;;;;;2.82;100.00;99670.94;5115934;28;20548;-85
2023/03/07 00:29:55;;;;;;;2.13;1.90;;;;;;;2.67;100.00;99642.84;5115896;28;20054;-84
2023/03/07 00:35:41;;;;;;;2.70;1.92;;;;;;;2.57;100.00;99654.72;5113798;28;20055;-81
2023/03/07 00:41:28;;;;;;;2.95;1.92;;;;;;;2.47;100.00;99633.97;5117922;28;20084;-82
2023/03/07 00:47:16;;;;;;;2.47;1.88;;;;;;;2.56;100.00;99634.63;5116851;28;20070;-81
2023/03/07 00:49:41;;;;;;;2.75;2.10;;;;;;;2.48;100.00;99630.31;5096185;28;20039;-83
2023/03/07 00:55:28;;;;;;;3.45;2.00;;;;;;;2.47;100.00;99634.78;5115529;28;20038;-83
2023/03/07 01:01:18;;;;;;;2.60;2.08;;;;;;;2.40;100.00;99625.19;5115227;28;20050;-85
2023/03/07 01:07:04;;;;;;;3.88;2.20;;;;;;;2.46;100.00;99629.69;5114038;28;20039;-84
2023/03/07 01:12:51;;;;;;;3.78;2.55;;;;;;;2.53;100.00;99620.00;5115032;28;20051;-85
2023/03/07 01:18:43;;;;;;;5.32;2.97;;;;;;;2.61;100.00;99619.88;5115085;28;20092;-84
2023/03/07 01:24:30;;;;;;;4.32;3.33;;;;;;;2.71;100.00;99612.44;5116153;28;20047;-81
2023/03/07 01:30:20;;;;;;;4.45;3.08;;;;;;;2.69;100.00;99597.78;5114812;28;20042;-84
2023/03/07 01:36:29;;;;;;;4.72;3.33;;;;;;;2.75;100.00;99599.66;5114632;28;20161;-81
2023/03/07 01:45:37;;;;;;;5.13;3.70;;;;;;;2.78;100.00;99592.16;5114684;28;20051;-82
2023/03/07 01:51:27;;;;;;;5.45;4.22;;;;;;;2.88;100.00;99586.50;5114508;28;20051;-81
2023/03/07 01:53:54;;;;;;;7.53;5.20;;;;;;;2.87;100.00;99590.16;5117913;28;20038;-81
2023/03/07 01:56:20;;;;;;;7.80;5.13;;;;;;;2.88;100.00;99583.06;5114064;28;20112;-81
2023/03/07 02:05:37;;;;;;;9.32;5.72;;;;;;;2.89;100.00;99574.13;5114032;28;20073;-83
2023/03/07 02:08:05;;;;;;;10.13;6.50;;;;;;;2.91;100.00;99582.69;5117280;28;20047;-81
2023/03/07 02:10:32;;;;;;;16.48;5.65;;;;;;;2.92;100.00;99577.22;5115014;28;20033;-80
2023/03/07 02:12:57;;;;;;;7.82;5.55;;;;;;;2.89;100.00;99561.78;5114428;28;20665;-80
2023/03/07 02:18:48;;;;;;;9.73;6.63;;;;;;;2.92;100.00;99556.09;5113882;28;20066;-82
2023/03/07 02:31:18;;;;;;;9.80;5.57;;;;;;;2.90;100.00;99559.94;5111726;28;20419;-79
2023/03/07 02:33:43;;;;;;;8.82;5.63;;;;;;;2.88;100.00;99556.66;5116262;28;20039;-78
2023/03/07 02:39:31;;;;;;;8.30;5.43;;;;;;;2.87;100.00;99545.28;5111368;28;20138;-77
2023/03/07 02:45:18;;;;;;;8.18;5.07;;;;;;;2.90;100.00;99547.56;5113500;28;20043;-77
2023/03/07 02:47:44;;;;;;;7.65;5.07;;;;;;;2.83;100.00;99541.41;5116101;27;20043;-77
2023/03/07 02:50:11;;;;;;;7.15;4.70;;;;;;;2.83;100.00;99544.06;5113105;28;20024;-78
2023/03/07 02:52:38;;;;;;;7.90;5.25;;;;;;;2.88;100.00;99544.28;5113320;28;20057;-78
2023/03/07 02:55:04;;;;;;;6.75;4.68;;;;;;;2.82;100.00;99545.06;5115689;28;20043;-79
2023/03/07 03:00:51;;;;;;;8.93;4.63;;;;;;;2.75;100.00;99529.22;5112922;28;20080;-80
2023/03/07 03:03:17;;;;;;;7.30;4.07;;;;;;;2.80;100.00;99536.53;5112709;28;20461;-79
2023/03/07 03:05:42;;;;;;;6.85;4.35;;;;;;;2.77;100.00;99529.81;5115688;27;20404;-81
2023/03/07 03:08:07;;;;;;;10.00;5.43;;;;;;;2.76;100.00;99532.66;5094492;28;20020;-78
2023/03/07 03:10:32;;;;;;;7.88;5.05;;;;;;;2.80;100.00;99544.44;5112870;28;20028;-83
2023/03/07 03:12:58;;;;;;;7.38;4.72;;;;;;;2.80;100.00;99531.25;5115877;28;20377;-82
2023/03/07 03:15:23;;;;;;;8.57;5.05;;;;;;;2.84;100.00;99543.03;5112854;28;20038;-84
2023/03/07 03:17:48;;;;;;;9.48;5.63;;;;;;;2.68;100.00;99525.72;5094477;28;20443;-83
2023/03/07 03:23:50;;;;;;;5.93;3.80;;;;;;;2.79;100.00;99538.38;5112727;28;20047;-83
2023/03/07 03:26:15;;;;;;;8.38;4.75;;;;;;;2.72;100.00;99526.16;5093708;28;20043;-83
2023/03/07 03:28:41;;;;;;;9.73;5.57;;;;;;;2.77;100.00;99531.66;5094074;28;20118;-82
2023/03/07 03:34:28;;;;;;;7.57;4.80;;;;;;;2.71;100.00;99522.69;5114315;28;20084;-80
2023/03/07 03:40:16;;;;;;;7.65;4.82;;;;;;;2.80;100.00;99526.78;5114357;28;20038;-82
2023/03/07 03:46:03;;;;;;;7.72;4.60;;;;;;;2.79;100.00;99513.78;5116041;28;20187;-80
2023/03/07 03:51:50;;;;;;;7.97;4.95;;;;;;;2.73;100.00;99496.91;5114175;28;20124;-82
2023/03/07 03:57:37;;;;;;;7.72;4.38;;;;;;;2.63;100.00;99491.19;5116219;28;20510;-82
2023/03/07 04:00:04;;;;;;;6.85;4.30;;;;;;;2.72;100.00;99489.19;5118882;27;20055;-82
2023/03/07 04:02:31;;;;;;;7.32;4.72;;;;;;;2.62;100.00;99489.56;5097536;28;20028;-83
2023/03/07 04:08:20;;;;;;;6.57;3.95;;;;;;;2.60;100.00;99481.03;5116146;28;20058;-83
2023/03/07 04:10:46;;;;;;;6.72;4.43;;;;;;;2.56;100.00;99471.88;5116235;28;20026;-84
2023/03/07 04:13:11;;;;;;;4.95;3.83;;;;;;;2.63;100.00;99479.84;5118232;28;20130;-83
2023/03/07 04:18:58;;;;;;;5.80;4.13;;;;;;;2.59;100.00;99470.66;5113788;28;20046;-80
2023/03/07 04:24:44;;;;;;;7.10;4.18;;;;;;;2.51;100.00;99469.00;5115306;28;20042;-81
2023/03/07 04:30:31;;;;;;;6.60;4.10;;;;;;;2.44;100.00;99445.25;5118017;28;20065;-80
2023/03/07 04:36:19;;;;;;;4.80;3.63;;;;;;;2.55;100.00;99454.41;5115377;28;20042;-80
2023/03/07 04:38:46;;;;;;;6.55;4.63;;;;;;;2.59;100.00;99455.63;5103343;28;20048;-80
2023/03/07 04:41:14;;;;;;;6.43;4.60;;;;;;;2.58;100.00;99453.19;5115069;28;20337;-80
2023/03/07 04:43:39;;;;;;;4.72;3.55;;;;;;;2.56;100.00;99439.41;5095990;28;20043;-81
2023/03/07 04:46:07;;;;;;;5.10;3.53;;;;;;;2.59;100.00;99446.91;5114651;28;20028;-84
2023/03/07 04:48:32;;;;;;;7.93;4.40;;;;;;;2.57;100.00;99447.09;5096955;28;20061;-83
2023/03/07 04:54:20;;;;;;;5.70;3.65;;;;;;;2.58;100.00;99450.56;5115245;28;20050;-82
2023/03/07 04:56:45;;;;;;;10.80;3.80;;;;;;;2.55;100.00;99440.41;5117977;28;20047;-82
2023/03/07 05:02:32;;;;;;;5.00;3.85;;;;;;;2.58;100.00;99432.91;5115213;28;20437;-81
2023/03/07 05:04:57;;;;;;;6.47;4.15;;;;;;;2.53;100.00;99427.41;5114586;28;20118;-81
2023/03/07 05:07:22;;;;;;;5.80;3.83;;;;;;;2.53;100.00;99427.41;5096398;28;20027;-80
2023/03/07 05:09:48;;;;;;;12.20;4.65;;;;;;;2.60;100.00;99438.84;5117711;28;20047;-80
2023/03/07 05:12:13;;;;;;;5.60;3.70;;;;;;;2.55;100.00;99424.56;5114525;28;20023;-80
2023/03/07 05:18:00;;;;;;;8.15;4.72;;;;;;;2.55;100.00;99428.03;5114821;28;20069;-81
2023/03/07 05:20:26;;;;;;;7.55;4.38;;;;;;;2.59;100.00;99429.25;5096245;28;20055;-81
2023/03/07 05:26:13;;;;;;;11.05;4.85;;;;;;;2.55;100.00;99428.03;5114559;28;20050;-81
2023/03/07 05:28:38;;;;;;;6.65;4.68;;;;;;;2.54;100.00;99407.94;5095383;28;20024;-80
2023/03/07 05:31:03;;;;;;;9.48;4.72;;;;;;;2.59;100.00;99413.44;5114290;28;20031;-81
2023/03/07 05:36:51;;;;;;;8.35;4.35;;;;;;;2.43;100.00;99395.31;5114567;28;20082;-82
2023/03/07 05:42:38;;;;;;;5.78;3.85;;;;;;;2.41;100.00;99408.72;5114696;28;20058;-82
2023/03/07 05:48:25;;;;;;;5.43;3.70;;;;;;;2.38;100.00;99410.94;5113526;28;20073;-81
2023/03/07 05:54:12;;;;;;;8.43;4.72;;;;;;;2.27;100.00;99407.00;5114211;28;20100;-80
2023/03/07 05:59:59;;;;;;;6.00;4.00;;;;;;;2.34;100.00;99404.41;5114486;28;20135;-80
2023/03/07 06:05:49;;;;;;;7.38;4.53;;;;;;;2.28;100.00;99400.72;5114174;28;20049;-79
2023/03/07 06:08:14;;;;;;;6.53;3.92;;;;;;;2.29;100.00;99415.53;5116898;28;20050;-80
2023/03/07 06:14:01;;;;;;;6.90;3.53;;;;;;;2.25;100.00;99413.47;5113858;28;20376;-79
2023/03/07 06:16:27;;;;;;;7.75;4.07;;;;;;;2.26;100.00;99405.38;5095168;28;20024;-79
2023/03/07 06:22:13;;;;;;;6.63;3.85;;;;;;;2.18;100.00;99400.28;5112497;28;20041;-80
2023/03/07 06:28:01;;;;;;;6.50;4.22;;;;;;;1.97;100.00;99406.44;5113636;28;20078;-80
2023/03/07 06:33:48;;;;;;;7.63;4.95;;;;;;;1.89;100.00;99425.03;5111510;28;20059;-81
2023/03/07 06:39:35;;;;;;;10.43;5.95;;;;;;;1.70;100.00;99426.53;5113421;28;20073;-81
2023/03/07 06:45:40;;;;;;;10.38;4.93;;;;;;;1.54;100.00;99417.09;5116242;28;20130;-80
2023/03/07 06:51:27;;;;;;;9.50;5.68;;;;;;;1.46;100.00;99409.34;5112284;28;20118;-81
2023/03/07 06:57:14;;;;;;;12.32;5.22;;;;;;;1.50;100.00;99420.31;5113250;28;20068;-81
2023/03/07 07:03:01;;;;;;;9.60;5.07;;;;;;;1.44;100.00;99424.50;5111072;28;20047;-81
2023/03/07 07:08:48;;;;;;;7.57;4.63;;;;;;;1.33;100.00;99418.94;5112990;28;20050;-82
2023/03/07 07:11:13;;;;;;;9.05;5.22;;;;;;;1.39;100.00;99434.78;5093889;28;20126;-81
2023/03/07 07:17:00;;;;;;;10.95;5.53;;;;;;;1.26;100.00;99418.06;5115977;27;20088;-83
2023/03/07 07:22:48;;;;;;;5.70;3.67;;;;;;;1.30;100.00;99425.41;5112998;28;20051;-82
2023/03/07 07:28:35;;;;;;;8.63;4.55;;;;;;;1.07;100.00;99425.59;5112893;28;20055;-79
2023/03/07 07:34:22;;;;;;;9.23;5.50;;;;;;;0.96;100.00;99438.44;5112763;28;20569;-81
2023/03/07 07:36:47;;;;;;;10.18;5.45;;;;;;;0.92;100.00;99438.00;5115332;28;20048;-82
2023/03/07 07:42:34;;;;;;;9.32;5.63;;;;;;;0.97;100.00;99469.00;5112664;28;20042;-80
2023/03/07 07:44:59;;;;;;;8.85;5.05;;;;;;;0.85;100.00;99456.31;5112131;28;20028;-81
2023/03/07 07:47:25;;;;;;;9.68;5.68;;;;;;;0.87;100.00;99467.50;5112253;28;20084;-81
2023/03/07 07:49:50;;;;;;;11.60;6.03;;;;;;;0.93;100.00;99472.03;5115253;28;20374;-81
2023/03/07 07:55:37;;;;;;;10.88;6.72;;;;;;;0.81;100.00;99484.00;5112435;28;20080;-82
2023/03/07 08:01:24;;;;;;;8.07;5.13;;;;;;;0.95;100.00;99485.00;5109450;28;20042;-85
2023/03/07 08:07:13;;;;;;;11.70;7.20;;;;;;;1.05;100.00;99489.94;5112354;28;20449;-80
2023/03/07 08:13:04;;;;;;;14.77;8.68;;;;;;;1.15;100.00;99490.44;5110494;28;20050;-85
2023/03/07 08:15:29;;;;;;;14.52;9.55;;;;;;;1.16;100.00;99495.56;5116461;28;20801;-87
2023/03/07 08:21:16;;;;;;;17.35;11.00;;;;;;;1.16;100.00;99492.91;5114722;28;20522;-86
2023/03/07 08:27:04;;;;;;;18.35;11.95;;;;;;;1.13;100.00;99513.50;5116145;28;20092;-83
2023/03/07 08:32:52;;;;;;;18.27;11.63;;;;;;;1.09;100.00;99514.88;5113993;28;20525;-81
2023/03/07 08:38:39;;;;;;;17.83;11.40;;;;;;;0.96;100.00;99520.00;5115614;28;20088;-81
2023/03/07 08:41:07;;;;;;;18.98;12.52;;;;;;;0.93;100.00;99508.03;5118384;27;20044;-81
2023/03/07 08:46:54;;;;;;;19.58;11.63;;;;;;;0.79;100.00;99496.53;5118433;28;20553;-82
2023/03/07 08:52:41;;;;;;;31.25;20.95;;;;;;;1.01;100.00;99510.56;5115334;28;20046;-80
2023/03/07 08:58:31;;;;;;;23.70;15.32;;;;;;;1.01;100.00;99493.94;5115242;28;20064;-80
2023/03/07 09:04:18;;;;;;;39.08;26.55;;;;;;;1.09;100.00;99499.91;5113608;28;20537;-81
2023/03/07 09:10:06;;;;;;;22.85;15.02;;;;;;;1.32;100.00;99498.94;5115220;28;20522;-82
2023/03/07 09:12:32;;;;;;;19.95;12.88;;;;;;;1.31;100.00;99506.03;5117764;27;20040;-82
2023/03/07 09:14:57;;;;;;;21.33;13.75;;;;;;;1.27;100.00;99493.41;5114580;28;20030;-82
2023/03/07 09:17:23;;;;;;;22.38;13.93;;;;;;;1.26;100.00;99502.31;5115399;28;20023;-82
2023/03/07 09:23:10;;;;;;;26.35;14.13;;;;;;;1.43;100.00;99520.31;5115119;28;20058;-82
2023/03/07 09:25:35;;;;;;;22.25;12.88;;;;;;;1.42;100.00;99520.50;5117725;28;20024;-82
2023/03/07 09:28:01;;;;;;;17.52;11.48;;;;;;;1.41;100.00;99524.94;5114438;28;20027;-82
2023/03/07 09:33:48;;;;;;;18.23;11.90;;;;;;;1.35;100.00;99524.88;5112160;28;20147;-83
2023/03/07 09:39:35;;;;;;;21.40;12.00;;;;;;;1.39;100.00;99529.59;5114648;28;20084;-84
2023/03/07 09:46:00;;;;;;;19.13;12.23;;;;;;;1.46;100.00;99527.03;5114692;28;20142;-83
2023/03/07 09:49:09;;;;;;;;;;;;;;;;;;;;;
2023/03/07 09:55:19;;;;;;;17.45;11.07;;;;;;;1.72;100.00;99522.00;5117808;28;20529;-81
2023/03/07 10:01:11;;;;;;;24.85;17.25;;;;;;;1.73;100.00;99522.81;5112295;28;20038;-84
2023/03/07 10:07:00;;;;;;;39.67;28.85;;;;;;;1.81;100.00;99522.69;5114173;28;20092;-82
2023/03/07 10:13:14;;;;;;;17.38;9.35;;;;;;;1.80;100.00;99529.78;5117298;28;20076;-83
2023/03/07 10:19:40;;;;;;;13.93;8.77;;;;;;;1.76;100.00;99525.09;5108431;28;20051;-83
2023/03/07 10:25:35;;;;;;;11.38;7.13;;;;;;;1.85;100.00;99535.31;5110675;28;20055;-82
2023/03/07 10:31:38;;;;;;;8.38;5.93;;;;;;;1.76;100.00;99515.38;5114000;28;20043;-84
2023/03/07 10:37:39;;;;;;;8.45;5.90;;;;;;;2.12;100.00;99530.25;5116798;28;20050;-83
2023/03/07 10:43:30;;;;;;;8.52;5.22;;;;;;;2.09;100.00;99522.72;5110785;28;20152;-84
2023/03/07 10:49:24;;;;;;;6.68;4.80;;;;;;;2.10;100.00;99529.63;5113337;28;20399;-86
2023/03/07 10:55:32;;;;;;;7.50;4.63;;;;;;;2.15;100.00;99530.66;5111259;28;20104;-84
2023/03/07 11:01:19;;;;;;;9.05;5.38;;;;;;;1.86;100.00;99528.22;5112130;28;20069;-85
2023/03/07 11:07:23;;;;;;;10.48;7.35;;;;;;;1.84;100.00;99532.84;5113255;28;20054;-85
2023/03/07 11:13:14;;;;;;;10.52;6.75;;;;;;;2.17;100.00;99523.38;5111151;28;20046;-86
2023/03/07 11:19:03;;;;;;;13.52;8.00;;;;;;;2.14;100.00;99529.03;5112851;28;20042;-85
2023/03/07 11:25:00;;;;;;;9.43;6.10;;;;;;;1.76;100.00;99518.00;5113360;28;20096;-84
2023/03/07 11:30:51;;;;;;;9.15;5.63;;;;;;;2.10;100.00;99530.44;5113186;28;20091;-84
2023/03/07 11:36:41;;;;;;;8.32;5.30;;;;;;;2.45;100.00;99526.00;5113442;28;20088;-86
2023/03/07 11:42:33;;;;;;;7.50;5.40;;;;;;;2.59;100.00;99526.88;5113408;28;20054;-84
2023/03/07 11:55:33;;;;;;;7.68;4.93;;;;;;;2.64;100.00;99516.56;5113554;28;20035;-88
2023/03/07 12:01:46;;;;;;;7.22;4.57;;;;;;;2.78;100.00;99515.63;5116637;28;20421;-84
2023/03/07 12:11:07;;;;;;;5.82;4.55;;;;;;;2.46;100.00;99518.91;5116032;28;20077;-82
2023/03/07 12:16:57;;;;;;;7.07;4.25;;;;;;;2.42;100.00;99520.31;5116020;28;20091;-85
2023/03/07 12:23:26;;;;;;;8.68;5.65;;;;;;;2.85;100.00;99512.19;5113728;28;20495;-81
2023/03/07 12:29:38;;;;;;;10.35;5.68;;;;;;;3.09;100.00;99517.78;5114097;28;20134;-82
2023/03/07 12:35:35;;;;;;;11.80;6.93;;;;;;;3.17;100.00;99511.50;5115866;28;20052;-84
2023/03/07 12:41:47;;;;;;;13.27;7.60;;;;;;;2.99;100.00;99524.44;5117569;28;20132;-85
2023/03/07 12:47:56;;;;;;;14.35;7.38;;;;;;;2.90;100.00;99520.34;5113564;28;20096;-83
2023/03/07 13:00:29;;;;;;;12.18;6.68;;;;;;;3.17;100.00;99514.13;5115195;28;20074;-82
2023/03/07 13:06:19;;;;;;;13.93;8.07;;;;;;;2.98;100.00;99521.00;5114907;28;20054;-84
2023/03/07 13:12:08;;;;;;;16.67;8.90;;;;;;;2.94;100.00;99513.66;5112748;28;20039;-84
2023/03/07 13:14:43;;;;;;;16.65;9.50;;;;;;;2.89;100.00;99500.22;5117779;28;20039;-83
2023/03/07 13:20:39;;;;;;;18.58;10.75;;;;;;;2.87;100.00;99507.53;5114701;28;20084;-83
2023/03/07 13:26:26;;;;;;;18.40;10.98;;;;;;;2.78;100.00;99509.53;5114480;28;20050;-83
2023/03/07 13:32:47;;;;;;;16.50;10.48;;;;;;;2.75;100.00;99516.00;5112950;28;20046;-83
2023/03/07 13:38:45;;;;;;;14.27;9.50;;;;;;;2.53;100.00;99517.09;5111966;28;20136;-86
2023/03/07 13:41:11;;;;;;;16.30;10.25;;;;;;;2.45;100.00;99517.28;5114355;28;20102;-83
2023/03/07 13:43:43;;;;;;;16.73;10.25;;;;;;;2.51;100.00;99528.88;5116989;28;20039;-82
2023/03/07 13:52:52;;;;;;;16.50;10.07;;;;;;;2.71;100.00;99522.69;5114492;28;20084;-84
2023/03/07 13:58:45;;;;;;;13.88;9.15;;;;;;;2.88;100.00;99535.53;5114545;28;20042;-83
2023/03/07 14:04:53;;;;;;;15.02;9.27;;;;;;;2.96;100.00;99536.22;5114220;28;20050;-83
2023/03/07 14:10:45;;;;;;;15.77;9.15;;;;;;;3.10;100.00;99537.06;5112549;28;20055;-85
2023/03/07 14:16:55;;;;;;;13.35;8.30;;;;;;;3.06;100.00;99547.22;5114534;28;20055;-85
2023/03/07 14:26:14;;;;;;;64.97;30.25;;;;;;;2.98;100.00;99538.66;5114600;28;20033;-83
2023/03/07 14:32:00;;;;;;;127.03;49.25;;;;;;;2.88;100.00;99551.38;5114305;28;20042;-85
2023/03/07 14:37:47;;;;;;;10.50;8.18;;;;;;;2.71;100.00;99538.53;5114103;28;20088;-84
2023/03/07 14:44:00;;;;;;;7.97;5.25;;;;;;;2.69;100.00;99548.47;5113763;28;20066;-83
2023/03/07 14:53:33;;;;;;;28.42;14.45;;;;;;;2.51;100.00;99571.88;5114271;28;20077;-85
2023/03/07 14:59:20;;;;;;;21.55;9.73;;;;;;;2.31;100.00;99569.09;5113971;28;20122;-84
2023/03/07 15:05:14;;;;;;;5.65;3.80;;;;;;;1.97;100.00;99556.69;5116730;27;20104;-82
2023/03/07 15:11:12;;;;;;;3.17;2.47;;;;;;;1.92;100.00;99577.53;5113271;28;20088;-82
2023/03/07 15:17:07;;;;;;;8.85;5.18;;;;;;;1.93;100.00;99568.59;5114019;28;20042;-82
2023/03/07 15:23:04;;;;;;;5.63;3.65;;;;;;;1.93;100.00;99575.69;5113853;28;20082;-82
2023/03/07 15:29:01;;;;;;;3.10;2.30;;;;;;;1.79;100.00;99587.94;5113168;28;20513;-81
2023/03/07 15:38:22;;;;;;;84.78;33.85;;;;;;;1.83;100.00;99582.13;5113423;28;20080;-82
2023/03/07 15:44:19;;;;;;;21.65;10.73;;;;;;;1.74;100.00;99585.88;5112861;28;20081;-80
2023/03/07 15:50:22;;;;;;;6.30;5.25;;;;;;;1.69;100.00;99584.78;5115996;28;20080;-82
2023/03/07 15:56:33;;;;;;;3.88;3.25;;;;;;;1.66;100.00;99604.44;5111444;28;20046;-83
2023/03/07 16:02:35;;;;;;;3.95;2.75;;;;;;;1.77;100.00;99605.78;5107728;28;20151;-83
2023/03/07 16:08:22;;;;;;;2.90;2.30;;;;;;;1.62;100.00;99613.72;5113316;28;20054;-83
2023/03/07 16:14:20;;;;;;;5.20;2.45;;;;;;;1.53;100.00;99622.75;5111493;28;20082;-82
2023/03/07 16:20:20;;;;;;;5.75;4.43;;;;;;;1.49;100.00;99616.22;5112043;28;20167;-81
2023/03/07 16:26:13;;;;;;;5.65;3.30;;;;;;;1.51;100.00;99624.75;5112457;28;20042;-83
2023/03/07 16:32:02;;;;;;;8.15;3.30;;;;;;;1.41;100.00;99635.56;5112122;28;20065;-82
2023/03/07 16:37:49;;;;;;;5.15;2.50;;;;;;;1.02;100.00;99649.03;5113102;28;20396;-83
2023/03/07 16:43:37;;;;;;;3.20;2.67;;;;;;;0.78;100.00;99658.00;5113977;28;20159;-82
2023/03/07 16:49:24;;;;;;;3.70;1.90;;;;;;;0.65;100.00;99655.19;5115809;28;20038;-81
2023/03/07 16:55:13;;;;;;;7.43;3.38;;;;;;;0.50;100.00;99683.25;5113836;28;20510;-81
2023/03/07 17:00:59;;;;;;;4.63;2.80;;;;;;;0.33;100.00;99671.25;5115538;28;20047;-84
2023/03/07 17:06:46;;;;;;;2.92;2.13;;;;;;;0.26;100.00;99692.97;5116637;28;20054;-79
2023/03/07 17:12:33;;;;;;;4.63;2.42;;;;;;;0.25;100.00;99680.00;5115655;28;20167;-76
2023/03/07 17:18:22;;;;;;;3.70;2.25;;;;;;;0.28;100.00;99675.22;5115619;28;20069;-82
2023/03/07 17:24:09;;;;;;;5.65;2.70;;;;;;;0.24;100.00;99679.19;5112900;28;20100;-79
2023/03/07 17:29:55;;;;;;;4.18;2.50;;;;;;;0.26;100.00;99700.03;5114978;28;20078;-78
2023/03/07 17:35:42;;;;;;;4.57;2.97;;;;;;;0.17;100.00;99699.28;5112904;28;20047;-79
2023/03/07 17:41:29;;;;;;;3.78;2.65;;;;;;;0.18;100.00;99708.81;5114809;28;20043;-78
2023/03/07 17:47:15;;;;;;;4.25;3.20;;;;;;;-0.03;100.00;99688.41;5114576;28;20045;-78
2023/03/07 17:53:02;;;;;;;5.72;3.22;;;;;;;-0.05;100.00;99700.91;5113419;28;20537;-77
2023/03/07 17:58:49;;;;;;;7.80;3.45;;;;;;;-0.07;100.00;99696.81;5114625;28;20046;-79
2023/03/07 18:04:36;;;;;;;5.78;3.53;;;;;;;-0.07;100.00;99709.94;5112273;28;20069;-79
2023/03/07 18:10:23;;;;;;;6.88;3.75;;;;;;;-0.01;100.00;99714.50;5115442;28;20034;-78
2023/03/07 18:16:12;;;;;;;9.43;5.20;;;;;;;0.05;100.00;99726.97;5113824;28;20047;-78
2023/03/07 18:21:59;;;;;;;10.43;5.85;;;;;;;0.02;100.00;99716.81;5115140;28;20560;-79
2023/03/07 18:27:46;;;;;;;9.80;5.95;;;;;;;0.08;100.00;99738.94;5115247;28;20517;-80
2023/03/07 18:33:33;;;;;;;10.98;6.50;;;;;;;0.11;100.00;99749.09;5114418;28;20096;-80
2023/03/07 18:39:22;;;;;;;11.48;7.18;;;;;;;0.09;100.00;99761.59;5114264;28;20546;-79
2023/03/07 18:45:09;;;;;;;16.75;10.02;;;;;;;0.03;100.00;99759.66;5112118;28;20122;-79
2023/03/07 18:50:59;;;;;;;18.38;10.63;;;;;;;0.03;100.00;99768.38;5114305;28;20051;-82
2023/03/07 18:56:46;;;;;;;15.80;9.32;;;;;;;0.02;100.00;99765.91;5114384;28;20089;-82
2023/03/07 19:02:33;;;;;;;17.55;9.18;;;;;;;-0.06;100.00;99762.31;5113317;28;20554;-81
2023/03/07 19:08:20;;;;;;;14.90;8.90;;;;;;;-0.04;100.00;99770.84;5113808;28;20127;-81
2023/03/07 19:14:06;;;;;;;16.67;9.70;;;;;;;-0.15;100.00;99752.84;5113625;28;20104;-81
2023/03/07 19:19:57;;;;;;;19.35;10.65;;;;;;;-0.06;100.00;99764.13;5113474;28;20542;-80
2023/03/07 19:25:44;;;;;;;18.95;11.43;;;;;;;-0.16;100.00;99761.72;5110994;28;20047;-82
2023/03/07 19:31:32;;;;;;;18.98;11.65;;;;;;;-0.12;100.00;99783.22;5113483;28;20051;-81
2023/03/07 19:37:18;;;;;;;241.93;75.95;;;;;;;-0.15;100.00;99791.44;5114614;28;20418;-79
2023/03/07 19:43:05;;;;;;;20.92;11.93;;;;;;;-0.20;100.00;99772.75;5109745;28;20085;-83
2023/03/07 19:48:52;;;;;;;27.88;17.30;;;;;;;-0.18;100.00;99797.84;5113269;28;20100;-80
2023/03/07 19:54:40;;;;;;;16.95;9.93;;;;;;;-0.11;100.00;99811.13;5113130;28;20489;-80
2023/03/07 20:00:26;;;;;;;21.58;13.43;;;;;;;-0.18;100.00;99787.34;5113413;28;20109;-81
2023/03/07 20:06:16;;;;;;;21.63;10.63;;;;;;;-0.15;100.00;99796.69;5111139;28;20047;-81
2023/03/07 20:12:04;;;;;;;18.00;10.40;;;;;;;-0.16;100.00;99800.31;5113276;28;20514;-81
2023/03/07 20:17:51;;;;;;;22.05;11.07;;;;;;;-0.21;100.00;99795.56;5116434;28;20455;-80
2023/03/07 20:23:41;;;;;;;20.05;11.35;;;;;;;-0.19;100.00;99811.97;5116379;28;20403;-82
2023/03/07 20:29:28;;;;;;;18.48;9.98;;;;;;;-0.24;100.00;99806.41;5119519;28;20047;-82
2023/03/07 20:35:15;;;;;;;17.58;8.95;;;;;;;-0.27;100.00;99814.63;5115450;28;20063;-81
2023/03/07 20:41:05;;;;;;;15.57;9.18;;;;;;;-0.32;100.00;99803.81;5116182;28;20055;-81
2023/03/07 20:46:52;;;;;;;15.15;9.95;;;;;;;-0.35;100.00;99801.50;5116057;28;20092;-83
2023/03/07 20:52:38;;;;;;;16.13;9.00;;;;;;;-0.34;100.00;99809.22;5115712;28;20066;-82
2023/03/07 20:58:28;;;;;;;17.45;9.32;;;;;;;-0.33;100.00;99800.34;5115791;28;20043;-84
2023/03/07 21:04:18;;;;;;;17.90;10.15;;;;;;;-0.33;100.00;99821.38;5115144;28;20043;-81
2023/03/07 21:13:27;;;;;;;17.60;8.98;;;;;;;-0.52;100.00;99808.63;5115155;28;20092;-80
2023/03/07 21:19:15;;;;;;;13.43;7.70;;;;;;;-0.62;100.00;99811.44;5115105;28;20062;-87
2023/03/07 21:25:02;;;;;;;14.63;8.65;;;;;;;-0.69;100.00;99826.22;5112770;28;20444;-81
2023/03/07 21:30:49;;;;;;;13.63;8.30;;;;;;;-0.77;100.00;99820.16;5114813;28;20096;-80
2023/03/07 21:36:36;;;;;;;10.50;7.15;;;;;;;-0.82;100.00;99827.72;5114650;28;20042;-79
2023/03/07 21:42:23;;;;;;;15.77;7.53;;;;;;;-0.93;100.00;99829.69;5114691;28;20047;-80
2023/03/07 21:48:10;;;;;;;12.13;6.57;;;;;;;-1.01;100.00;99839.38;5114508;28;20134;-80
2023/03/07 21:53:58;;;;;;;10.07;6.85;;;;;;;-0.97;100.00;99849.34;5113749;28;20089;-81
2023/03/07 21:59:45;;;;;;;9.93;5.95;;;;;;;-1.07;100.00;99845.28;5114567;28;20046;-79
2023/03/07 22:05:32;;;;;;;14.95;7.35;;;;;;;-1.18;100.00;99854.25;5111766;28;20530;-79
2023/03/07 22:11:19;;;;;;;11.52;7.07;;;;;;;-1.22;100.00;99866.06;5113719;28;20126;-79
2023/03/07 22:13:44;;;;;;;12.77;7.05;;;;;;;-1.31;100.00;99860.00;5116612;27;20518;-80
2023/03/07 22:19:31;;;;;;;16.13;7.05;;;;;;;-1.32;100.00;99852.28;5115216;28;20041;-80
2023/03/07 22:25:18;;;;;;;14.88;8.32;;;;;;;-1.41;100.00;99845.41;5113644;28;20043;-79
2023/03/07 22:31:08;;;;;;;14.93;8.07;;;;;;;-1.30;100.00;99866.06;5113656;28;20053;-78
2023/03/07 22:36:56;;;;;;;15.00;8.30;;;;;;;-1.27;100.00;99861.31;5111694;28;20108;-79
2023/03/07 22:42:43;;;;;;;15.68;8.02;;;;;;;-1.35;100.00;99860.47;5113566;28;20034;-79
2023/03/07 22:48:31;;;;;;;12.63;6.97;;;;;;;-1.32;100.00;99870.66;5111183;28;20078;-77
2023/03/07 22:54:18;;;;;;;16.15;9.27;;;;;;;-1.43;100.00;99857.84;5113179;28;20363;-79
2023/03/07 23:00:28;;;;;;;18.10;9.98;;;;;;;-1.31;100.00;99859.19;5113373;28;20039;-77
2023/03/07 23:06:15;;;;;;;23.05;10.93;;;;;;;-1.35;100.00;99852.63;5111212;28;20112;-77
2023/03/07 23:12:03;;;;;;;22.15;12.90;;;;;;;-1.39;100.00;99840.81;5113044;28;20085;-77
2023/03/07 23:17:50;;;;;;;24.30;13.35;;;;;;;-1.39;100.00;99841.63;5114418;27;20042;-77
2023/03/07 23:23:37;;;;;;;25.25;15.10;;;;;;;-1.39;100.00;99828.53;5113076;28;20134;-79
2023/03/07 23:26:03;;;;;;;22.25;12.93;;;;;;;-1.36;100.00;99822.97;5115861;28;20118;-79
2023/03/07 23:28:29;;;;;;;26.10;14.95;;;;;;;-1.37;100.00;99823.13;5112564;28;20020;-79
2023/03/07 23:30:54;;;;;;;29.55;14.23;;;;;;;-1.39;100.00;99825.09;5113890;28;20750;-79
2023/03/07 23:36:41;;;;;;;31.92;16.00;;;;;;;-1.40;100.00;99826.91;5112955;28;20084;-79
2023/03/07 23:42:28;;;;;;;34.08;16.23;;;;;;;-1.32;100.00;99818.22;5110736;28;20062;-78
2023/03/07 23:48:15;;;;;;;33.35;17.52;;;;;;;-1.29;100.00;99818.69;5112518;28;20030;-78
2023/03/07 23:50:40;;;;;;;33.00;17.92;;;;;;;-1.22;100.00;99831.97;5112539;27;20115;-78
2023/03/07 23:56:27;;;;;;;33.20;18.13;;;;;;;-1.24;100.00;99815.59;5116640;28;20051;-78
2023/03/07 23:58:53;;;;;;;31.00;18.40;;;;;;;-1.17;100.00;99834.09;5118980;27;20039;-78
